sensor_id;sensor_type;location;lat;lon;timestamp;P1;durP1;ratioP1;P2;durP2;ratioP2
68432;SDS011;55412;51.350;17.056;2023-09-19T00:00:42;5.78;;;2.20;;
68432;SDS011;55412;51.350;17.056;2023-09-19T00:03:09;5.32;;;1.70;;
68432;SDS011;55412;51.350;17.056;2023-09-19T00:05:37;4.75;;;1.10;;
68432;SDS011;55412;51.350;17.056;2023-09-19T00:08:04;4.40;;;1.67;;
68432;SDS011;55412;51.350;17.056;2023-09-19T00:10:32;4.73;;;1.40;;
68432;SDS011;55412;51.350;17.056;2023-09-19T00:13:06;4.30;;;1.88;;
68432;SDS011;55412;51.350;17.056;2023-09-19T00:15:37;4.50;;;1.38;;
68432;SDS011;55412;51.350;17.056;2023-09-19T00:18:06;4.13;;;1.10;;
68432;SDS011;55412;51.350;17.056;2023-09-19T00:20:37;4.75;;;1.52;;
68432;SDS011;55412;51.350;17.056;2023-09-19T00:23:04;9.77;;;2.10;;
68432;SDS011;55412;51.350;17.056;2023-09-19T00:25:34;6.45;;;1.25;;
68432;SDS011;55412;51.350;17.056;2023-09-19T00:28:03;7.55;;;2.20;;
68432;SDS011;55412;51.350;17.056;2023-09-19T00:30:31;6.45;;;1.70;;
68432;SDS011;55412;51.350;17.056;2023-09-19T00:32:58;6.25;;;1.48;;
68432;SDS011;55412;51.350;17.056;2023-09-19T00:35:26;4.80;;;1.53;;
68432;SDS011;55412;51.350;17.056;2023-09-19T00:37:53;4.63;;;1.00;;
68432;SDS011;55412;51.350;17.056;2023-09-19T00:40:20;4.25;;;1.52;;
68432;SDS011;55412;51.350;17.056;2023-09-19T00:42:48;4.70;;;1.05;;
68432;SDS011;55412;51.350;17.056;2023-09-19T00:45:16;4.88;;;1.30;;
68432;SDS011;55412;51.350;17.056;2023-09-19T00:47:49;3.30;;;1.00;;
68432;SDS011;55412;51.350;17.056;2023-09-19T00:50:17;4.00;;;1.25;;
68432;SDS011;55412;51.350;17.056;2023-09-19T00:52:46;8.30;;;1.67;;
68432;SDS011;55412;51.350;17.056;2023-09-19T00:55:15;6.05;;;1.42;;
68432;SDS011;55412;51.350;17.056;2023-09-19T00:57:45;3.83;;;1.20;;
68432;SDS011;55412;51.350;17.056;2023-09-19T01:00:15;6.53;;;1.40;;
68432;SDS011;55412;51.350;17.056;2023-09-19T01:02:45;4.15;;;1.55;;
68432;SDS011;55412;51.350;17.056;2023-09-19T01:05:12;4.28;;;1.67;;
68432;SDS011;55412;51.350;17.056;2023-09-19T01:07:39;4.45;;;1.40;;
68432;SDS011;55412;51.350;17.056;2023-09-19T01:10:06;5.45;;;1.27;;
68432;SDS011;55412;51.350;17.056;2023-09-19T01:15:32;3.92;;;1.23;;
68432;SDS011;55412;51.350;17.056;2023-09-19T01:24:07;5.68;;;1.63;;
68432;SDS011;55412;51.350;17.056;2023-09-19T01:30:39;5.03;;;1.02;;
68432;SDS011;55412;51.350;17.056;2023-09-19T01:33:09;7.53;;;1.27;;
68432;SDS011;55412;51.350;17.056;2023-09-19T01:35:39;4.50;;;1.60;;
68432;SDS011;55412;51.350;17.056;2023-09-19T01:38:06;7.28;;;1.80;;
68432;SDS011;55412;51.350;17.056;2023-09-19T01:40:41;4.57;;;1.33;;
68432;SDS011;55412;51.350;17.056;2023-09-19T01:52:02;9.05;;;2.28;;
68432;SDS011;55412;51.350;17.056;2023-09-19T01:54:45;7.90;;;2.60;;
68432;SDS011;55412;51.350;17.056;2023-09-19T01:57:26;8.18;;;2.85;;
68432;SDS011;55412;51.350;17.056;2023-09-19T02:00:02;8.30;;;3.00;;
68432;SDS011;55412;51.350;17.056;2023-09-19T02:02:34;11.85;;;3.10;;
68432;SDS011;55412;51.350;17.056;2023-09-19T02:05:04;8.25;;;3.72;;
68432;SDS011;55412;51.350;17.056;2023-09-19T02:07:31;8.77;;;3.60;;
68432;SDS011;55412;51.350;17.056;2023-09-19T02:09:57;9.13;;;3.03;;
68432;SDS011;55412;51.350;17.056;2023-09-19T02:12:30;7.82;;;3.80;;
68432;SDS011;55412;51.350;17.056;2023-09-19T02:14:58;11.55;;;3.63;;
68432;SDS011;55412;51.350;17.056;2023-09-19T02:17:24;9.18;;;4.20;;
68432;SDS011;55412;51.350;17.056;2023-09-19T02:19:54;7.53;;;3.10;;
68432;SDS011;55412;51.350;17.056;2023-09-19T02:22:23;7.78;;;3.80;;
68432;SDS011;55412;51.350;17.056;2023-09-19T02:24:50;9.18;;;4.70;;
68432;SDS011;55412;51.350;17.056;2023-09-19T02:27:17;8.52;;;3.80;;
68432;SDS011;55412;51.350;17.056;2023-09-19T02:29:44;10.35;;;4.13;;
68432;SDS011;55412;51.350;17.056;2023-09-19T02:32:10;7.63;;;3.23;;
68432;SDS011;55412;51.350;17.056;2023-09-19T02:34:36;11.23;;;5.25;;
68432;SDS011;55412;51.350;17.056;2023-09-19T02:37:07;10.75;;;5.15;;
68432;SDS011;55412;51.350;17.056;2023-09-19T02:39:38;8.80;;;3.67;;
68432;SDS011;55412;51.350;17.056;2023-09-19T02:42:04;9.95;;;4.55;;
68432;SDS011;55412;51.350;17.056;2023-09-19T02:44:30;8.00;;;3.27;;
68432;SDS011;55412;51.350;17.056;2023-09-19T02:46:57;8.90;;;4.45;;
68432;SDS011;55412;51.350;17.056;2023-09-19T02:49:24;9.50;;;4.45;;
68432;SDS011;55412;51.350;17.056;2023-09-19T02:51:50;8.30;;;3.47;;
68432;SDS011;55412;51.350;17.056;2023-09-19T02:54:16;11.45;;;5.88;;
68432;SDS011;55412;51.350;17.056;2023-09-19T02:56:43;8.53;;;3.97;;
68432;SDS011;55412;51.350;17.056;2023-09-19T02:59:09;9.40;;;3.72;;
68432;SDS011;55412;51.350;17.056;2023-09-19T03:01:36;9.13;;;4.45;;
68432;SDS011;55412;51.350;17.056;2023-09-19T03:04:03;8.20;;;3.55;;
68432;SDS011;55412;51.350;17.056;2023-09-19T03:06:36;9.32;;;5.13;;
68432;SDS011;55412;51.350;17.056;2023-09-19T03:09:05;9.47;;;4.60;;
68432;SDS011;55412;51.350;17.056;2023-09-19T03:11:39;10.10;;;4.72;;
68432;SDS011;55412;51.350;17.056;2023-09-19T03:14:07;9.85;;;4.70;;
68432;SDS011;55412;51.350;17.056;2023-09-19T03:16:35;9.38;;;4.20;;
68432;SDS011;55412;51.350;17.056;2023-09-19T03:19:03;12.38;;;6.57;;
68432;SDS011;55412;51.350;17.056;2023-09-19T03:21:29;10.60;;;5.70;;
68432;SDS011;55412;51.350;17.056;2023-09-19T03:23:55;13.27;;;5.90;;
68432;SDS011;55412;51.350;17.056;2023-09-19T03:26:22;12.05;;;4.85;;
68432;SDS011;55412;51.350;17.056;2023-09-19T03:28:48;9.45;;;3.90;;
68432;SDS011;55412;51.350;17.056;2023-09-19T03:31:14;9.23;;;4.95;;
68432;SDS011;55412;51.350;17.056;2023-09-19T03:33:41;9.10;;;4.60;;
68432;SDS011;55412;51.350;17.056;2023-09-19T03:36:07;11.13;;;5.95;;
68432;SDS011;55412;51.350;17.056;2023-09-19T03:38:33;9.95;;;4.97;;
68432;SDS011;55412;51.350;17.056;2023-09-19T03:41:00;11.93;;;4.90;;
68432;SDS011;55412;51.350;17.056;2023-09-19T03:43:27;9.80;;;4.50;;
68432;SDS011;55412;51.350;17.056;2023-09-19T03:45:57;13.97;;;6.77;;
68432;SDS011;55412;51.350;17.056;2023-09-19T03:48:30;8.57;;;4.53;;
68432;SDS011;55412;51.350;17.056;2023-09-19T03:50:56;9.43;;;4.97;;
68432;SDS011;55412;51.350;17.056;2023-09-19T03:53:22;11.60;;;5.07;;
68432;SDS011;55412;51.350;17.056;2023-09-19T03:55:48;13.15;;;6.05;;
68432;SDS011;55412;51.350;17.056;2023-09-19T03:58:15;9.00;;;3.93;;
68432;SDS011;55412;51.350;17.056;2023-09-19T04:00:41;10.23;;;5.32;;
68432;SDS011;55412;51.350;17.056;2023-09-19T04:03:08;8.57;;;4.82;;
68432;SDS011;55412;51.350;17.056;2023-09-19T04:05:43;10.50;;;4.75;;
68432;SDS011;55412;51.350;17.056;2023-09-19T04:08:11;8.85;;;4.80;;
68432;SDS011;55412;51.350;17.056;2023-09-19T04:10:38;11.40;;;5.37;;
68432;SDS011;55412;51.350;17.056;2023-09-19T04:13:04;12.18;;;6.63;;
68432;SDS011;55412;51.350;17.056;2023-09-19T04:15:32;12.98;;;6.65;;
68432;SDS011;55412;51.350;17.056;2023-09-19T04:17:59;11.07;;;5.55;;
68432;SDS011;55412;51.350;17.056;2023-09-19T04:20:25;14.00;;;7.57;;
68432;SDS011;55412;51.350;17.056;2023-09-19T04:22:51;11.40;;;5.77;;
68432;SDS011;55412;51.350;17.056;2023-09-19T04:25:17;10.07;;;5.55;;
68432;SDS011;55412;51.350;17.056;2023-09-19T04:27:44;13.43;;;6.60;;
68432;SDS011;55412;51.350;17.056;2023-09-19T04:30:10;14.15;;;6.70;;
68432;SDS011;55412;51.350;17.056;2023-09-19T04:32:37;11.88;;;5.03;;
68432;SDS011;55412;51.350;17.056;2023-09-19T04:35:07;13.73;;;5.63;;
68432;SDS011;55412;51.350;17.056;2023-09-19T04:37:38;13.07;;;6.43;;
68432;SDS011;55412;51.350;17.056;2023-09-19T04:40:07;13.20;;;6.80;;
68432;SDS011;55412;51.350;17.056;2023-09-19T04:45:36;11.55;;;5.60;;
68432;SDS011;55412;51.350;17.056;2023-09-19T04:48:05;14.40;;;6.47;;
68432;SDS011;55412;51.350;17.056;2023-09-19T04:50:34;11.80;;;5.72;;
68432;SDS011;55412;51.350;17.056;2023-09-19T04:53:00;12.02;;;6.78;;
68432;SDS011;55412;51.350;17.056;2023-09-19T04:55:26;15.45;;;8.40;;
68432;SDS011;55412;51.350;17.056;2023-09-19T04:57:53;14.40;;;8.02;;
68432;SDS011;55412;51.350;17.056;2023-09-19T05:00:20;12.07;;;6.70;;
68432;SDS011;55412;51.350;17.056;2023-09-19T05:02:54;12.55;;;7.30;;
68432;SDS011;55412;51.350;17.056;2023-09-19T05:05:22;11.25;;;6.28;;
68432;SDS011;55412;51.350;17.056;2023-09-19T05:07:51;14.90;;;7.70;;
68432;SDS011;55412;51.350;17.056;2023-09-19T05:10:19;9.88;;;5.85;;
68432;SDS011;55412;51.350;17.056;2023-09-19T05:12:46;10.60;;;5.07;;
68432;SDS011;55412;51.350;17.056;2023-09-19T05:15:13;11.20;;;6.00;;
68432;SDS011;55412;51.350;17.056;2023-09-19T05:17:42;13.20;;;6.07;;
68432;SDS011;55412;51.350;17.056;2023-09-19T05:20:17;13.80;;;6.57;;
68432;SDS011;55412;51.350;17.056;2023-09-19T05:22:58;10.85;;;5.60;;
68432;SDS011;55412;51.350;17.056;2023-09-19T05:25:30;19.33;;;9.47;;
68432;SDS011;55412;51.350;17.056;2023-09-19T05:28:00;16.45;;;8.60;;
68432;SDS011;55412;51.350;17.056;2023-09-19T05:30:29;14.30;;;8.00;;
68432;SDS011;55412;51.350;17.056;2023-09-19T05:32:55;20.00;;;11.82;;
68432;SDS011;55412;51.350;17.056;2023-09-19T05:35:22;20.73;;;11.43;;
68432;SDS011;55412;51.350;17.056;2023-09-19T05:37:50;20.90;;;11.20;;
68432;SDS011;55412;51.350;17.056;2023-09-19T05:40:18;20.08;;;11.50;;
68432;SDS011;55412;51.350;17.056;2023-09-19T05:42:45;21.83;;;12.60;;
68432;SDS011;55412;51.350;17.056;2023-09-19T05:45:13;19.58;;;11.00;;
68432;SDS011;55412;51.350;17.056;2023-09-19T05:47:44;16.90;;;10.60;;
68432;SDS011;55412;51.350;17.056;2023-09-19T05:50:11;17.37;;;10.03;;
68432;SDS011;55412;51.350;17.056;2023-09-19T05:52:38;15.23;;;8.32;;
68432;SDS011;55412;51.350;17.056;2023-09-19T05:55:06;17.48;;;9.98;;
68432;SDS011;55412;51.350;17.056;2023-09-19T05:57:33;18.92;;;10.48;;
68432;SDS011;55412;51.350;17.056;2023-09-19T06:00:00;20.92;;;10.73;;
68432;SDS011;55412;51.350;17.056;2023-09-19T06:02:26;19.33;;;10.10;;
68432;SDS011;55412;51.350;17.056;2023-09-19T06:04:55;15.93;;;9.02;;
68432;SDS011;55412;51.350;17.056;2023-09-19T06:07:22;17.45;;;10.52;;
68432;SDS011;55412;51.350;17.056;2023-09-19T06:09:51;18.98;;;9.73;;
68432;SDS011;55412;51.350;17.056;2023-09-19T06:12:19;16.92;;;8.32;;
68432;SDS011;55412;51.350;17.056;2023-09-19T06:14:45;13.67;;;6.97;;
68432;SDS011;55412;51.350;17.056;2023-09-19T06:17:11;13.88;;;8.27;;
68432;SDS011;55412;51.350;17.056;2023-09-19T06:19:37;16.98;;;9.05;;
68432;SDS011;55412;51.350;17.056;2023-09-19T06:22:03;15.30;;;8.40;;
68432;SDS011;55412;51.350;17.056;2023-09-19T06:24:30;13.27;;;7.20;;
68432;SDS011;55412;51.350;17.056;2023-09-19T06:26:56;12.87;;;7.13;;
68432;SDS011;55412;51.350;17.056;2023-09-19T06:29:26;10.30;;;5.28;;
68432;SDS011;55412;51.350;17.056;2023-09-19T06:31:53;12.45;;;6.72;;
68432;SDS011;55412;51.350;17.056;2023-09-19T06:34:19;12.27;;;5.50;;
68432;SDS011;55412;51.350;17.056;2023-09-19T06:36:45;12.07;;;5.50;;
68432;SDS011;55412;51.350;17.056;2023-09-19T06:39:11;10.70;;;4.30;;
68432;SDS011;55412;51.350;17.056;2023-09-19T06:41:37;8.65;;;4.75;;
68432;SDS011;55412;51.350;17.056;2023-09-19T06:44:04;9.32;;;4.80;;
68432;SDS011;55412;51.350;17.056;2023-09-19T06:46:31;8.48;;;3.70;;
68432;SDS011;55412;51.350;17.056;2023-09-19T06:49:00;8.95;;;3.63;;
68432;SDS011;55412;51.350;17.056;2023-09-19T06:51:31;9.07;;;3.53;;
68432;SDS011;55412;51.350;17.056;2023-09-19T06:54:00;8.25;;;3.50;;
68432;SDS011;55412;51.350;17.056;2023-09-19T06:56:27;10.00;;;3.75;;
68432;SDS011;55412;51.350;17.056;2023-09-19T06:58:53;6.72;;;2.88;;
68432;SDS011;55412;51.350;17.056;2023-09-19T07:01:20;6.15;;;3.05;;
68432;SDS011;55412;51.350;17.056;2023-09-19T07:03:46;5.27;;;2.50;;
68432;SDS011;55412;51.350;17.056;2023-09-19T07:06:12;6.60;;;2.22;;
68432;SDS011;55412;51.350;17.056;2023-09-19T07:08:38;4.88;;;1.92;;
68432;SDS011;55412;51.350;17.056;2023-09-19T07:11:04;4.93;;;1.92;;
68432;SDS011;55412;51.350;17.056;2023-09-19T07:13:31;4.65;;;2.25;;
68432;SDS011;55412;51.350;17.056;2023-09-19T07:16:00;4.93;;;1.60;;
68432;SDS011;55412;51.350;17.056;2023-09-19T07:18:26;4.32;;;1.67;;
68432;SDS011;55412;51.350;17.056;2023-09-19T07:20:56;5.30;;;1.83;;
68432;SDS011;55412;51.350;17.056;2023-09-19T07:23:30;6.15;;;1.40;;
68432;SDS011;55412;51.350;17.056;2023-09-19T07:26:00;3.65;;;1.20;;
68432;SDS011;55412;51.350;17.056;2023-09-19T07:28:30;3.43;;;1.20;;
68432;SDS011;55412;51.350;17.056;2023-09-19T07:30:59;5.93;;;1.00;;
68432;SDS011;55412;51.350;17.056;2023-09-19T07:33:28;5.05;;;1.77;;
68432;SDS011;55412;51.350;17.056;2023-09-19T07:35:54;4.70;;;1.27;;
68432;SDS011;55412;51.350;17.056;2023-09-19T07:38:21;4.07;;;1.08;;
68432;SDS011;55412;51.350;17.056;2023-09-19T07:40:47;4.50;;;1.30;;
68432;SDS011;55412;51.350;17.056;2023-09-19T07:43:14;5.18;;;1.38;;
68432;SDS011;55412;51.350;17.056;2023-09-19T07:45:40;3.67;;;1.52;;
68432;SDS011;55412;51.350;17.056;2023-09-19T07:48:06;4.90;;;1.27;;
68432;SDS011;55412;51.350;17.056;2023-09-19T07:50:39;4.65;;;1.60;;
68432;SDS011;55412;51.350;17.056;2023-09-19T07:53:08;4.87;;;1.37;;
68432;SDS011;55412;51.350;17.056;2023-09-19T07:55:34;4.35;;;1.10;;
68432;SDS011;55412;51.350;17.056;2023-09-19T07:58:00;4.90;;;1.10;;
68432;SDS011;55412;51.350;17.056;2023-09-19T08:00:29;4.63;;;1.40;;
68432;SDS011;55412;51.350;17.056;2023-09-19T08:02:57;3.03;;;1.10;;
68432;SDS011;55412;51.350;17.056;2023-09-19T08:05:24;4.27;;;1.20;;
68432;SDS011;55412;51.350;17.056;2023-09-19T08:07:51;4.70;;;1.05;;
68432;SDS011;55412;51.350;17.056;2023-09-19T08:10:19;4.22;;;1.67;;
68432;SDS011;55412;51.350;17.056;2023-09-19T08:12:46;3.78;;;1.05;;
68432;SDS011;55412;51.350;17.056;2023-09-19T08:15:14;3.83;;;1.02;;
68432;SDS011;55412;51.350;17.056;2023-09-19T08:17:42;5.20;;;0.73;;
68432;SDS011;55412;51.350;17.056;2023-09-19T08:20:10;6.72;;;1.20;;
68432;SDS011;55412;51.350;17.056;2023-09-19T08:22:52;3.55;;;1.15;;
68432;SDS011;55412;51.350;17.056;2023-09-19T08:25:20;4.65;;;2.15;;
68432;SDS011;55412;51.350;17.056;2023-09-19T08:27:48;3.75;;;1.25;;
68432;SDS011;55412;51.350;17.056;2023-09-19T08:30:23;4.27;;;1.00;;
68432;SDS011;55412;51.350;17.056;2023-09-19T08:32:50;7.82;;;1.27;;
68432;SDS011;55412;51.350;17.056;2023-09-19T08:35:16;3.65;;;1.13;;
68432;SDS011;55412;51.350;17.056;2023-09-19T08:37:42;4.05;;;1.13;;
68432;SDS011;55412;51.350;17.056;2023-09-19T08:40:11;4.50;;;1.50;;
68432;SDS011;55412;51.350;17.056;2023-09-19T08:42:51;4.90;;;1.00;;
68432;SDS011;55412;51.350;17.056;2023-09-19T08:45:23;4.40;;;0.98;;
68432;SDS011;55412;51.350;17.056;2023-09-19T08:48:00;4.75;;;0.98;;
68432;SDS011;55412;51.350;17.056;2023-09-19T08:51:00;3.72;;;1.23;;
68432;SDS011;55412;51.350;17.056;2023-09-19T08:53:41;3.72;;;1.40;;
68432;SDS011;55412;51.350;17.056;2023-09-19T08:56:20;3.07;;;0.77;;
68432;SDS011;55412;51.350;17.056;2023-09-19T08:58:59;3.75;;;0.90;;
68432;SDS011;55412;51.350;17.056;2023-09-19T09:01:29;3.55;;;1.02;;
68432;SDS011;55412;51.350;17.056;2023-09-19T09:03:57;3.78;;;1.40;;
68432;SDS011;55412;51.350;17.056;2023-09-19T09:06:25;4.55;;;1.52;;
68432;SDS011;55412;51.350;17.056;2023-09-19T09:08:53;4.43;;;1.07;;
68432;SDS011;55412;51.350;17.056;2023-09-19T09:11:20;4.85;;;0.63;;
68432;SDS011;55412;51.350;17.056;2023-09-19T09:13:53;3.60;;;1.20;;
68432;SDS011;55412;51.350;17.056;2023-09-19T09:16:21;4.60;;;0.90;;
68432;SDS011;55412;51.350;17.056;2023-09-19T09:18:51;4.15;;;0.98;;
68432;SDS011;55412;51.350;17.056;2023-09-19T09:21:20;3.47;;;1.20;;
68432;SDS011;55412;51.350;17.056;2023-09-19T09:23:49;4.05;;;0.60;;
68432;SDS011;55412;51.350;17.056;2023-09-19T09:26:17;3.25;;;1.20;;
68432;SDS011;55412;51.350;17.056;2023-09-19T09:29:05;3.28;;;1.05;;
68432;SDS011;55412;51.350;17.056;2023-09-19T09:31:33;4.10;;;1.35;;
68432;SDS011;55412;51.350;17.056;2023-09-19T09:34:01;3.00;;;0.80;;
68432;SDS011;55412;51.350;17.056;2023-09-19T09:36:36;4.00;;;1.58;;
68432;SDS011;55412;51.350;17.056;2023-09-19T09:39:06;3.38;;;1.30;;
68432;SDS011;55412;51.350;17.056;2023-09-19T09:41:50;5.90;;;1.30;;
68432;SDS011;55412;51.350;17.056;2023-09-19T09:44:17;5.57;;;1.33;;
68432;SDS011;55412;51.350;17.056;2023-09-19T09:46:48;3.60;;;1.30;;
68432;SDS011;55412;51.350;17.056;2023-09-19T09:49:35;4.75;;;1.40;;
68432;SDS011;55412;51.350;17.056;2023-09-19T09:52:05;4.72;;;1.10;;
68432;SDS011;55412;51.350;17.056;2023-09-19T09:55:03;4.10;;;1.08;;
68432;SDS011;55412;51.350;17.056;2023-09-19T09:57:30;2.70;;;0.70;;
68432;SDS011;55412;51.350;17.056;2023-09-19T09:59:59;3.30;;;1.13;;
68432;SDS011;55412;51.350;17.056;2023-09-19T10:02:40;3.40;;;1.10;;
68432;SDS011;55412;51.350;17.056;2023-09-19T10:05:11;5.20;;;1.30;;
68432;SDS011;55412;51.350;17.056;2023-09-19T10:07:50;4.05;;;1.40;;
68432;SDS011;55412;51.350;17.056;2023-09-19T10:10:31;3.42;;;1.00;;
68432;SDS011;55412;51.350;17.056;2023-09-19T10:13:14;3.10;;;0.90;;
68432;SDS011;55412;51.350;17.056;2023-09-19T10:15:44;5.32;;;1.40;;
68432;SDS011;55412;51.350;17.056;2023-09-19T10:18:21;3.80;;;1.67;;
68432;SDS011;55412;51.350;17.056;2023-09-19T10:20:53;4.03;;;1.10;;
68432;SDS011;55412;51.350;17.056;2023-09-19T10:23:21;3.10;;;1.40;;
68432;SDS011;55412;51.350;17.056;2023-09-19T10:25:49;3.90;;;1.27;;
68432;SDS011;55412;51.350;17.056;2023-09-19T10:28:16;4.82;;;1.00;;
68432;SDS011;55412;51.350;17.056;2023-09-19T10:30:51;3.20;;;1.20;;
68432;SDS011;55412;51.350;17.056;2023-09-19T10:33:18;4.57;;;1.15;;
68432;SDS011;55412;51.350;17.056;2023-09-19T10:35:56;4.50;;;1.38;;
68432;SDS011;55412;51.350;17.056;2023-09-19T10:38:25;3.13;;;1.20;;
68432;SDS011;55412;51.350;17.056;2023-09-19T10:40:54;4.53;;;1.10;;
68432;SDS011;55412;51.350;17.056;2023-09-19T10:43:28;3.58;;;1.38;;
68432;SDS011;55412;51.350;17.056;2023-09-19T10:46:01;3.60;;;1.10;;
68432;SDS011;55412;51.350;17.056;2023-09-19T10:48:32;3.70;;;1.08;;
68432;SDS011;55412;51.350;17.056;2023-09-19T10:51:06;3.30;;;1.13;;
68432;SDS011;55412;51.350;17.056;2023-09-19T10:53:52;3.60;;;1.50;;
68432;SDS011;55412;51.350;17.056;2023-09-19T10:56:36;3.50;;;1.33;;
68432;SDS011;55412;51.350;17.056;2023-09-19T11:05:40;5.33;;;0.60;;
68432;SDS011;55412;51.350;17.056;2023-09-19T11:11:43;3.40;;;1.00;;
68432;SDS011;55412;51.350;17.056;2023-09-19T11:30:31;4.18;;;1.10;;
68432;SDS011;55412;51.350;17.056;2023-09-19T11:43:54;3.22;;;0.60;;
68432;SDS011;55412;51.350;17.056;2023-09-19T11:49:24;3.15;;;0.90;;
68432;SDS011;55412;51.350;17.056;2023-09-19T11:51:57;3.30;;;0.75;;
68432;SDS011;55412;51.350;17.056;2023-09-19T11:54:38;2.28;;;0.40;;
68432;SDS011;55412;51.350;17.056;2023-09-19T11:57:08;3.08;;;0.93;;
68432;SDS011;55412;51.350;17.056;2023-09-19T11:59:38;4.23;;;0.63;;
68432;SDS011;55412;51.350;17.056;2023-09-19T12:02:04;2.70;;;0.68;;
68432;SDS011;55412;51.350;17.056;2023-09-19T12:04:37;2.88;;;0.75;;
68432;SDS011;55412;51.350;17.056;2023-09-19T12:07:09;3.80;;;0.63;;
68432;SDS011;55412;51.350;17.056;2023-09-19T12:09:40;3.08;;;0.95;;
68432;SDS011;55412;51.350;17.056;2023-09-19T12:12:25;2.87;;;0.70;;
68432;SDS011;55412;51.350;17.056;2023-09-19T12:14:52;3.83;;;0.90;;
68432;SDS011;55412;51.350;17.056;2023-09-19T12:17:20;2.60;;;0.90;;
68432;SDS011;55412;51.350;17.056;2023-09-19T12:19:52;4.18;;;0.60;;
68432;SDS011;55412;51.350;17.056;2023-09-19T12:22:21;3.67;;;1.05;;
68432;SDS011;55412;51.350;17.056;2023-09-19T12:24:47;4.17;;;0.80;;
68432;SDS011;55412;51.350;17.056;2023-09-19T12:27:15;3.00;;;1.02;;
68432;SDS011;55412;51.350;17.056;2023-09-19T12:32:14;3.70;;;0.55;;
68432;SDS011;55412;51.350;17.056;2023-09-19T12:34:50;2.85;;;0.95;;
68432;SDS011;55412;51.350;17.056;2023-09-19T12:37:18;2.53;;;0.60;;
68432;SDS011;55412;51.350;17.056;2023-09-19T12:39:48;2.75;;;1.02;;
68432;SDS011;55412;51.350;17.056;2023-09-19T12:42:22;3.00;;;0.55;;
68432;SDS011;55412;51.350;17.056;2023-09-19T12:44:52;3.53;;;0.77;;
68432;SDS011;55412;51.350;17.056;2023-09-19T12:47:22;2.80;;;0.80;;
68432;SDS011;55412;51.350;17.056;2023-09-19T12:50:13;3.93;;;0.50;;
68432;SDS011;55412;51.350;17.056;2023-09-19T12:52:48;3.40;;;1.20;;
68432;SDS011;55412;51.350;17.056;2023-09-19T13:05:50;4.53;;;1.33;;
68432;SDS011;55412;51.350;17.056;2023-09-19T13:08:25;4.22;;;1.05;;
68432;SDS011;55412;51.350;17.056;2023-09-19T13:11:11;5.35;;;1.20;;
68432;SDS011;55412;51.350;17.056;2023-09-19T13:13:51;3.22;;;1.00;;
68432;SDS011;55412;51.350;17.056;2023-09-19T13:17:04;3.73;;;1.27;;
68432;SDS011;55412;51.350;17.056;2023-09-19T13:19:51;3.85;;;0.95;;
68432;SDS011;55412;51.350;17.056;2023-09-19T13:22:37;5.63;;;1.05;;
68432;SDS011;55412;51.350;17.056;2023-09-19T13:25:11;5.00;;;2.00;;
68432;SDS011;55412;51.350;17.056;2023-09-19T13:27:46;4.95;;;1.23;;
68432;SDS011;55412;51.350;17.056;2023-09-19T13:30:21;4.60;;;1.50;;
68432;SDS011;55412;51.350;17.056;2023-09-19T13:33:09;5.68;;;1.52;;
68432;SDS011;55412;51.350;17.056;2023-09-19T13:35:37;4.43;;;1.38;;
68432;SDS011;55412;51.350;17.056;2023-09-19T13:38:06;4.28;;;1.20;;
68432;SDS011;55412;51.350;17.056;2023-09-19T13:40:36;4.50;;;1.83;;
68432;SDS011;55412;51.350;17.056;2023-09-19T13:43:10;4.67;;;1.47;;
68432;SDS011;55412;51.350;17.056;2023-09-19T13:45:37;6.15;;;2.25;;
68432;SDS011;55412;51.350;17.056;2023-09-19T13:48:03;5.20;;;1.90;;
68432;SDS011;55412;51.350;17.056;2023-09-19T13:50:30;6.53;;;2.28;;
68432;SDS011;55412;51.350;17.056;2023-09-19T13:52:56;4.85;;;1.83;;
68432;SDS011;55412;51.350;17.056;2023-09-19T13:55:25;5.47;;;1.43;;
68432;SDS011;55412;51.350;17.056;2023-09-19T13:57:51;5.13;;;1.30;;
68432;SDS011;55412;51.350;17.056;2023-09-19T14:00:20;4.82;;;1.92;;
68432;SDS011;55412;51.350;17.056;2023-09-19T14:02:48;4.93;;;1.50;;
68432;SDS011;55412;51.350;17.056;2023-09-19T14:05:16;5.72;;;1.48;;
68432;SDS011;55412;51.350;17.056;2023-09-19T14:07:42;4.63;;;1.73;;
68432;SDS011;55412;51.350;17.056;2023-09-19T14:10:09;3.40;;;0.98;;
68432;SDS011;55412;51.350;17.056;2023-09-19T14:12:37;3.70;;;1.27;;
68432;SDS011;55412;51.350;17.056;2023-09-19T14:15:10;4.50;;;0.80;;
68432;SDS011;55412;51.350;17.056;2023-09-19T14:17:41;3.33;;;0.98;;
68432;SDS011;55412;51.350;17.056;2023-09-19T14:20:10;2.63;;;0.57;;
68432;SDS011;55412;51.350;17.056;2023-09-19T14:22:41;4.45;;;0.70;;
68432;SDS011;55412;51.350;17.056;2023-09-19T14:25:11;3.03;;;0.88;;
68432;SDS011;55412;51.350;17.056;2023-09-19T14:27:41;2.67;;;0.77;;
68432;SDS011;55412;51.350;17.056;2023-09-19T14:30:11;3.40;;;1.00;;
68432;SDS011;55412;51.350;17.056;2023-09-19T14:32:38;2.47;;;0.63;;
68432;SDS011;55412;51.350;17.056;2023-09-19T14:35:08;2.85;;;0.40;;
68432;SDS011;55412;51.350;17.056;2023-09-19T14:37:36;2.83;;;0.88;;
68432;SDS011;55412;51.350;17.056;2023-09-19T14:40:06;2.30;;;0.45;;
68432;SDS011;55412;51.350;17.056;2023-09-19T14:42:34;2.95;;;0.52;;
68432;SDS011;55412;51.350;17.056;2023-09-19T14:45:04;3.97;;;0.70;;
68432;SDS011;55412;51.350;17.056;2023-09-19T14:47:32;5.28;;;0.40;;
68432;SDS011;55412;51.350;17.056;2023-09-19T14:50:01;2.70;;;0.68;;
68432;SDS011;55412;51.350;17.056;2023-09-19T14:52:32;2.28;;;0.50;;
68432;SDS011;55412;51.350;17.056;2023-09-19T14:54:59;3.13;;;0.75;;
68432;SDS011;55412;51.350;17.056;2023-09-19T14:57:26;4.40;;;0.37;;
68432;SDS011;55412;51.350;17.056;2023-09-19T14:59:53;3.90;;;0.60;;
68432;SDS011;55412;51.350;17.056;2023-09-19T15:02:19;2.70;;;0.70;;
68432;SDS011;55412;51.350;17.056;2023-09-19T15:04:46;2.55;;;0.60;;
68432;SDS011;55412;51.350;17.056;2023-09-19T15:07:13;4.03;;;0.90;;
68432;SDS011;55412;51.350;17.056;2023-09-19T15:09:43;2.50;;;0.50;;
68432;SDS011;55412;51.350;17.056;2023-09-19T15:12:14;2.95;;;0.90;;
68432;SDS011;55412;51.350;17.056;2023-09-19T15:15:05;2.50;;;0.85;;
68432;SDS011;55412;51.350;17.056;2023-09-19T15:17:35;3.28;;;0.45;;
68432;SDS011;55412;51.350;17.056;2023-09-19T15:20:02;3.25;;;0.73;;
68432;SDS011;55412;51.350;17.056;2023-09-19T15:22:32;2.50;;;0.20;;
68432;SDS011;55412;51.350;17.056;2023-09-19T15:25:02;2.70;;;0.55;;
68432;SDS011;55412;51.350;17.056;2023-09-19T15:27:29;3.05;;;0.68;;
68432;SDS011;55412;51.350;17.056;2023-09-19T15:30:01;2.20;;;0.25;;
68432;SDS011;55412;51.350;17.056;2023-09-19T15:32:30;4.57;;;0.75;;
68432;SDS011;55412;51.350;17.056;2023-09-19T15:34:57;2.93;;;0.50;;
68432;SDS011;55412;51.350;17.056;2023-09-19T15:37:23;2.47;;;0.45;;
68432;SDS011;55412;51.350;17.056;2023-09-19T15:39:53;4.15;;;0.98;;
68432;SDS011;55412;51.350;17.056;2023-09-19T15:42:30;2.78;;;0.65;;
68432;SDS011;55412;51.350;17.056;2023-09-19T15:45:11;2.63;;;0.80;;
68432;SDS011;55412;51.350;17.056;2023-09-19T15:48:21;1.97;;;0.50;;
68432;SDS011;55412;51.350;17.056;2023-09-19T15:51:08;3.60;;;0.85;;
68432;SDS011;55412;51.350;17.056;2023-09-19T15:53:46;3.72;;;0.98;;
68432;SDS011;55412;51.350;17.056;2023-09-19T15:56:15;3.35;;;0.88;;
68432;SDS011;55412;51.350;17.056;2023-09-19T15:58:48;2.78;;;0.75;;
68432;SDS011;55412;51.350;17.056;2023-09-19T16:01:17;3.03;;;0.27;;
68432;SDS011;55412;51.350;17.056;2023-09-19T16:03:49;3.92;;;0.45;;
68432;SDS011;55412;51.350;17.056;2023-09-19T16:06:24;10.52;;;0.93;;